sensor_id;sensor_type;location;lat;lon;timestamp;P1;durP1;ratioP1;P2;durP2;ratioP2
65567;SDS011;52211;50.154;8.682;2023-07-08T00:00:59;4.93;;;4.10;;
65567;SDS011;52211;50.154;8.682;2023-07-08T00:03:37;6.40;;;5.03;;
65567;SDS011;52211;50.154;8.682;2023-07-08T00:06:13;5.80;;;4.73;;
65567;SDS011;52211;50.154;8.682;2023-07-08T00:08:49;6.77;;;4.57;;
65567;SDS011;52211;50.154;8.682;2023-07-08T00:11:24;4.93;;;4.40;;
65567;SDS011;52211;50.154;8.682;2023-07-08T00:13:56;6.60;;;4.67;;
65567;SDS011;52211;50.154;8.682;2023-07-08T00:16:26;4.40;;;3.97;;
65567;SDS011;52211;50.154;8.682;2023-07-08T00:18:55;5.97;;;4.47;;
65567;SDS011;52211;50.154;8.682;2023-07-08T00:21:26;5.03;;;4.03;;
65567;SDS011;52211;50.154;8.682;2023-07-08T00:23:58;4.97;;;4.40;;
65567;SDS011;52211;50.154;8.682;2023-07-08T00:26:25;6.30;;;4.67;;
65567;SDS011;52211;50.154;8.682;2023-07-08T00:28:58;5.07;;;4.50;;
65567;SDS011;52211;50.154;8.682;2023-07-08T00:31:25;5.10;;;4.30;;
65567;SDS011;52211;50.154;8.682;2023-07-08T00:33:55;7.03;;;5.10;;
65567;SDS011;52211;50.154;8.682;2023-07-08T00:36:26;7.33;;;5.27;;
65567;SDS011;52211;50.154;8.682;2023-07-08T00:38:59;6.13;;;5.00;;
65567;SDS011;52211;50.154;8.682;2023-07-08T00:41:46;6.30;;;5.33;;
65567;SDS011;52211;50.154;8.682;2023-07-08T00:44:16;5.87;;;4.63;;
65567;SDS011;52211;50.154;8.682;2023-07-08T00:47:07;4.80;;;4.30;;
65567;SDS011;52211;50.154;8.682;2023-07-08T00:52:24;7.07;;;4.40;;
65567;SDS011;52211;50.154;8.682;2023-07-08T00:54:58;6.13;;;4.30;;
65567;SDS011;52211;50.154;8.682;2023-07-08T00:57:33;5.27;;;4.60;;
65567;SDS011;52211;50.154;8.682;2023-07-08T01:02:38;6.77;;;4.70;;
65567;SDS011;52211;50.154;8.682;2023-07-08T01:05:19;5.33;;;4.27;;
65567;SDS011;52211;50.154;8.682;2023-07-08T01:07:57;6.10;;;4.87;;
65567;SDS011;52211;50.154;8.682;2023-07-08T01:10:34;4.83;;;4.33;;
65567;SDS011;52211;50.154;8.682;2023-07-08T01:13:17;5.03;;;4.20;;
65567;SDS011;52211;50.154;8.682;2023-07-08T01:15:47;4.47;;;3.73;;
65567;SDS011;52211;50.154;8.682;2023-07-08T01:18:18;5.63;;;4.30;;
65567;SDS011;52211;50.154;8.682;2023-07-08T01:20:47;5.07;;;4.57;;
65567;SDS011;52211;50.154;8.682;2023-07-08T01:23:16;5.23;;;4.67;;
65567;SDS011;52211;50.154;8.682;2023-07-08T01:25:44;6.07;;;5.03;;
65567;SDS011;52211;50.154;8.682;2023-07-08T01:28:15;6.10;;;4.87;;
65567;SDS011;52211;50.154;8.682;2023-07-08T01:30:45;4.87;;;4.37;;
65567;SDS011;52211;50.154;8.682;2023-07-08T01:33:16;5.17;;;4.50;;
65567;SDS011;52211;50.154;8.682;2023-07-08T01:35:48;6.23;;;4.93;;
65567;SDS011;52211;50.154;8.682;2023-07-08T01:38:18;5.57;;;4.67;;
65567;SDS011;52211;50.154;8.682;2023-07-08T01:40:53;4.30;;;3.90;;
65567;SDS011;52211;50.154;8.682;2023-07-08T01:43:28;5.00;;;4.50;;
65567;SDS011;52211;50.154;8.682;2023-07-08T01:45:58;6.07;;;4.73;;
65567;SDS011;52211;50.154;8.682;2023-07-08T01:48:40;5.47;;;4.30;;
65567;SDS011;52211;50.154;8.682;2023-07-08T01:51:14;4.83;;;3.97;;
65567;SDS011;52211;50.154;8.682;2023-07-08T01:53:41;7.43;;;4.73;;
65567;SDS011;52211;50.154;8.682;2023-07-08T01:56:10;4.93;;;4.17;;
65567;SDS011;52211;50.154;8.682;2023-07-08T01:58:40;6.03;;;4.37;;
65567;SDS011;52211;50.154;8.682;2023-07-08T02:01:07;5.07;;;4.53;;
65567;SDS011;52211;50.154;8.682;2023-07-08T02:03:35;4.37;;;3.80;;
65567;SDS011;52211;50.154;8.682;2023-07-08T02:06:03;4.57;;;3.77;;
65567;SDS011;52211;50.154;8.682;2023-07-08T02:08:35;5.57;;;4.50;;
65567;SDS011;52211;50.154;8.682;2023-07-08T02:11:06;5.60;;;4.43;;
65567;SDS011;52211;50.154;8.682;2023-07-08T02:13:36;5.87;;;4.10;;
65567;SDS011;52211;50.154;8.682;2023-07-08T02:16:03;5.70;;;4.03;;
65567;SDS011;52211;50.154;8.682;2023-07-08T02:18:34;5.20;;;4.30;;
65567;SDS011;52211;50.154;8.682;2023-07-08T02:21:03;4.63;;;4.20;;
65567;SDS011;52211;50.154;8.682;2023-07-08T02:23:35;5.83;;;4.60;;
65567;SDS011;52211;50.154;8.682;2023-07-08T02:26:04;5.20;;;4.03;;
65567;SDS011;52211;50.154;8.682;2023-07-08T02:28:36;4.83;;;4.27;;
65567;SDS011;52211;50.154;8.682;2023-07-08T02:31:07;5.10;;;4.40;;
65567;SDS011;52211;50.154;8.682;2023-07-08T02:33:34;4.87;;;4.33;;
65567;SDS011;52211;50.154;8.682;2023-07-08T02:36:01;5.00;;;4.10;;
65567;SDS011;52211;50.154;8.682;2023-07-08T02:38:28;4.67;;;4.07;;
65567;SDS011;52211;50.154;8.682;2023-07-08T02:40:57;5.43;;;4.27;;
65567;SDS011;52211;50.154;8.682;2023-07-08T02:43:30;6.50;;;4.30;;
65567;SDS011;52211;50.154;8.682;2023-07-08T02:45:59;5.57;;;4.10;;
65567;SDS011;52211;50.154;8.682;2023-07-08T02:48:31;5.73;;;4.13;;
65567;SDS011;52211;50.154;8.682;2023-07-08T02:51:01;5.30;;;4.23;;
65567;SDS011;52211;50.154;8.682;2023-07-08T02:53:37;5.40;;;4.47;;
65567;SDS011;52211;50.154;8.682;2023-07-08T02:56:04;5.70;;;4.60;;
65567;SDS011;52211;50.154;8.682;2023-07-08T02:58:33;5.13;;;4.63;;
65567;SDS011;52211;50.154;8.682;2023-07-08T03:01:03;4.97;;;4.43;;
65567;SDS011;52211;50.154;8.682;2023-07-08T03:03:32;8.93;;;5.07;;
65567;SDS011;52211;50.154;8.682;2023-07-08T03:06:04;5.70;;;4.83;;
65567;SDS011;52211;50.154;8.682;2023-07-08T03:08:31;6.23;;;4.07;;
65567;SDS011;52211;50.154;8.682;2023-07-08T03:11:01;4.10;;;3.80;;
65567;SDS011;52211;50.154;8.682;2023-07-08T03:13:34;10.27;;;4.80;;
65567;SDS011;52211;50.154;8.682;2023-07-08T03:16:09;5.77;;;3.77;;
65567;SDS011;52211;50.154;8.682;2023-07-08T03:18:46;4.60;;;3.77;;
65567;SDS011;52211;50.154;8.682;2023-07-08T03:21:14;6.60;;;4.67;;
65567;SDS011;52211;50.154;8.682;2023-07-08T03:23:47;4.07;;;3.50;;
65567;SDS011;52211;50.154;8.682;2023-07-08T03:26:16;4.73;;;4.07;;
65567;SDS011;52211;50.154;8.682;2023-07-08T03:28:51;4.30;;;3.90;;
65567;SDS011;52211;50.154;8.682;2023-07-08T03:31:27;7.03;;;3.93;;
65567;SDS011;52211;50.154;8.682;2023-07-08T03:33:58;5.73;;;3.97;;
65567;SDS011;52211;50.154;8.682;2023-07-08T03:36:28;5.63;;;3.87;;
65567;SDS011;52211;50.154;8.682;2023-07-08T03:38:57;4.30;;;3.90;;
65567;SDS011;52211;50.154;8.682;2023-07-08T03:41:25;4.73;;;4.27;;
65567;SDS011;52211;50.154;8.682;2023-07-08T03:43:53;4.90;;;4.17;;
65567;SDS011;52211;50.154;8.682;2023-07-08T03:46:21;6.80;;;4.27;;
65567;SDS011;52211;50.154;8.682;2023-07-08T03:48:51;5.17;;;4.30;;
65567;SDS011;52211;50.154;8.682;2023-07-08T03:51:22;5.50;;;4.53;;
65567;SDS011;52211;50.154;8.682;2023-07-08T03:53:56;5.43;;;4.60;;
65567;SDS011;52211;50.154;8.682;2023-07-08T03:56:24;4.87;;;4.10;;
65567;SDS011;52211;50.154;8.682;2023-07-08T03:58:54;5.47;;;3.80;;
65567;SDS011;52211;50.154;8.682;2023-07-08T04:01:24;6.67;;;3.60;;
65567;SDS011;52211;50.154;8.682;2023-07-08T04:03:55;4.67;;;3.83;;
65567;SDS011;52211;50.154;8.682;2023-07-08T04:06:24;5.67;;;4.53;;
65567;SDS011;52211;50.154;8.682;2023-07-08T04:08:53;4.63;;;3.70;;
65567;SDS011;52211;50.154;8.682;2023-07-08T04:11:22;5.50;;;3.57;;
65567;SDS011;52211;50.154;8.682;2023-07-08T04:13:53;4.63;;;3.63;;
65567;SDS011;52211;50.154;8.682;2023-07-08T04:16:23;4.00;;;3.50;;
65567;SDS011;52211;50.154;8.682;2023-07-08T04:18:59;5.40;;;4.30;;
65567;SDS011;52211;50.154;8.682;2023-07-08T04:21:29;4.53;;;3.50;;
65567;SDS011;52211;50.154;8.682;2023-07-08T04:23:56;4.67;;;4.10;;
65567;SDS011;52211;50.154;8.682;2023-07-08T04:26:25;4.00;;;3.60;;
65567;SDS011;52211;50.154;8.682;2023-07-08T04:28:54;6.20;;;4.00;;
65567;SDS011;52211;50.154;8.682;2023-07-08T04:31:21;6.77;;;3.90;;
65567;SDS011;52211;50.154;8.682;2023-07-08T04:33:50;4.10;;;3.57;;
65567;SDS011;52211;50.154;8.682;2023-07-08T04:36:17;3.63;;;3.33;;
65567;SDS011;52211;50.154;8.682;2023-07-08T04:38:50;4.23;;;3.83;;
65567;SDS011;52211;50.154;8.682;2023-07-08T04:41:17;6.10;;;3.77;;
65567;SDS011;52211;50.154;8.682;2023-07-08T04:43:49;4.10;;;3.80;;
65567;SDS011;52211;50.154;8.682;2023-07-08T04:46:27;4.23;;;3.57;;
65567;SDS011;52211;50.154;8.682;2023-07-08T04:49:01;3.93;;;3.10;;
65567;SDS011;52211;50.154;8.682;2023-07-08T04:51:29;4.83;;;3.47;;
65567;SDS011;52211;50.154;8.682;2023-07-08T04:53:56;3.83;;;3.40;;
65567;SDS011;52211;50.154;8.682;2023-07-08T04:56:44;5.00;;;3.90;;
65567;SDS011;52211;50.154;8.682;2023-07-08T04:59:19;4.07;;;3.63;;
65567;SDS011;52211;50.154;8.682;2023-07-08T05:01:51;4.10;;;3.47;;
65567;SDS011;52211;50.154;8.682;2023-07-08T05:04:21;4.10;;;3.00;;
65567;SDS011;52211;50.154;8.682;2023-07-08T05:06:49;4.67;;;3.27;;
65567;SDS011;52211;50.154;8.682;2023-07-08T05:09:16;4.73;;;3.83;;
65567;SDS011;52211;50.154;8.682;2023-07-08T05:11:47;3.83;;;3.30;;
65567;SDS011;52211;50.154;8.682;2023-07-08T05:14:16;4.93;;;3.43;;
65567;SDS011;52211;50.154;8.682;2023-07-08T05:16:48;4.07;;;3.67;;
65567;SDS011;52211;50.154;8.682;2023-07-08T05:19:17;5.23;;;3.73;;
65567;SDS011;52211;50.154;8.682;2023-07-08T05:21:47;4.13;;;3.50;;
65567;SDS011;52211;50.154;8.682;2023-07-08T05:24:18;4.17;;;2.97;;
65567;SDS011;52211;50.154;8.682;2023-07-08T05:26:47;3.83;;;3.47;;
65567;SDS011;52211;50.154;8.682;2023-07-08T05:29:19;3.53;;;3.23;;
65567;SDS011;52211;50.154;8.682;2023-07-08T05:31:46;3.30;;;2.60;;
65567;SDS011;52211;50.154;8.682;2023-07-08T05:34:14;3.80;;;3.10;;
65567;SDS011;52211;50.154;8.682;2023-07-08T05:36:44;3.57;;;3.23;;
65567;SDS011;52211;50.154;8.682;2023-07-08T05:39:14;4.63;;;3.37;;
65567;SDS011;52211;50.154;8.682;2023-07-08T05:41:43;4.53;;;4.13;;
65567;SDS011;52211;50.154;8.682;2023-07-08T05:44:10;3.43;;;2.93;;
65567;SDS011;52211;50.154;8.682;2023-07-08T05:46:37;5.43;;;3.97;;
65567;SDS011;52211;50.154;8.682;2023-07-08T05:49:04;4.77;;;3.10;;
65567;SDS011;52211;50.154;8.682;2023-07-08T05:51:33;4.03;;;3.63;;
65567;SDS011;52211;50.154;8.682;2023-07-08T05:54:03;3.30;;;2.93;;
65567;SDS011;52211;50.154;8.682;2023-07-08T05:56:32;4.50;;;3.60;;
65567;SDS011;52211;50.154;8.682;2023-07-08T05:58:59;3.83;;;3.33;;
65567;SDS011;52211;50.154;8.682;2023-07-08T06:01:29;3.47;;;3.13;;
65567;SDS011;52211;50.154;8.682;2023-07-08T06:03:59;4.27;;;3.70;;
65567;SDS011;52211;50.154;8.682;2023-07-08T06:06:29;3.63;;;3.17;;
65567;SDS011;52211;50.154;8.682;2023-07-08T06:09:03;3.43;;;3.00;;
65567;SDS011;52211;50.154;8.682;2023-07-08T06:11:34;3.17;;;2.87;;
65567;SDS011;52211;50.154;8.682;2023-07-08T06:14:01;4.30;;;3.80;;
65567;SDS011;52211;50.154;8.682;2023-07-08T06:16:31;4.73;;;4.20;;
65567;SDS011;52211;50.154;8.682;2023-07-08T06:19:09;6.77;;;5.03;;
65567;SDS011;52211;50.154;8.682;2023-07-08T06:21:36;5.53;;;5.03;;
65567;SDS011;52211;50.154;8.682;2023-07-08T06:24:07;5.00;;;4.23;;
65567;SDS011;52211;50.154;8.682;2023-07-08T06:26:36;3.87;;;3.47;;
65567;SDS011;52211;50.154;8.682;2023-07-08T06:29:06;4.90;;;4.40;;
65567;SDS011;52211;50.154;8.682;2023-07-08T06:31:33;5.67;;;4.57;;
65567;SDS011;52211;50.154;8.682;2023-07-08T06:34:02;4.00;;;3.60;;
65567;SDS011;52211;50.154;8.682;2023-07-08T06:36:34;4.03;;;3.63;;
65567;SDS011;52211;50.154;8.682;2023-07-08T06:39:06;4.47;;;3.33;;
65567;SDS011;52211;50.154;8.682;2023-07-08T06:41:37;5.77;;;3.93;;
65567;SDS011;52211;50.154;8.682;2023-07-08T06:44:04;4.37;;;3.60;;
65567;SDS011;52211;50.154;8.682;2023-07-08T06:46:32;4.80;;;4.33;;
65567;SDS011;52211;50.154;8.682;2023-07-08T06:49:02;5.90;;;4.90;;
65567;SDS011;52211;50.154;8.682;2023-07-08T06:51:35;5.10;;;4.47;;
65567;SDS011;52211;50.154;8.682;2023-07-08T06:54:02;4.30;;;3.90;;
65567;SDS011;52211;50.154;8.682;2023-07-08T06:56:33;3.73;;;3.33;;
65567;SDS011;52211;50.154;8.682;2023-07-08T06:59:02;4.87;;;3.27;;
65567;SDS011;52211;50.154;8.682;2023-07-08T07:01:36;3.20;;;2.90;;
65567;SDS011;52211;50.154;8.682;2023-07-08T07:04:03;4.13;;;3.50;;
65567;SDS011;52211;50.154;8.682;2023-07-08T07:06:31;3.97;;;3.57;;
65567;SDS011;52211;50.154;8.682;2023-07-08T07:09:00;4.03;;;3.50;;
65567;SDS011;52211;50.154;8.682;2023-07-08T07:11:27;3.97;;;3.30;;
65567;SDS011;52211;50.154;8.682;2023-07-08T07:13:55;4.00;;;3.17;;
65567;SDS011;52211;50.154;8.682;2023-07-08T07:16:26;4.20;;;3.80;;
65567;SDS011;52211;50.154;8.682;2023-07-08T07:18:53;6.07;;;3.57;;
65567;SDS011;52211;50.154;8.682;2023-07-08T07:21:23;4.03;;;3.37;;
65567;SDS011;52211;50.154;8.682;2023-07-08T07:23:54;4.03;;;3.63;;
65567;SDS011;52211;50.154;8.682;2023-07-08T07:26:25;4.33;;;3.43;;
65567;SDS011;52211;50.154;8.682;2023-07-08T07:28:54;3.33;;;3.03;;
65567;SDS011;52211;50.154;8.682;2023-07-08T07:31:23;3.77;;;3.27;;
65567;SDS011;52211;50.154;8.682;2023-07-08T07:33:53;5.23;;;3.40;;
65567;SDS011;52211;50.154;8.682;2023-07-08T07:36:20;3.70;;;3.00;;
65567;SDS011;52211;50.154;8.682;2023-07-08T07:38:49;4.50;;;3.20;;
65567;SDS011;52211;50.154;8.682;2023-07-08T07:41:16;4.73;;;2.90;;
65567;SDS011;52211;50.154;8.682;2023-07-08T07:43:48;5.40;;;3.37;;
65567;SDS011;52211;50.154;8.682;2023-07-08T07:46:17;4.17;;;2.67;;
65567;SDS011;52211;50.154;8.682;2023-07-08T07:48:44;3.57;;;3.27;;
65567;SDS011;52211;50.154;8.682;2023-07-08T07:51:13;5.37;;;4.47;;
65567;SDS011;52211;50.154;8.682;2023-07-08T07:53:44;4.80;;;4.20;;
65567;SDS011;52211;50.154;8.682;2023-07-08T07:56:14;5.17;;;3.63;;
65567;SDS011;52211;50.154;8.682;2023-07-08T07:58:41;6.57;;;5.40;;
65567;SDS011;52211;50.154;8.682;2023-07-08T08:01:07;6.03;;;4.60;;
65567;SDS011;52211;50.154;8.682;2023-07-08T08:03:39;3.87;;;3.47;;
65567;SDS011;52211;50.154;8.682;2023-07-08T08:06:11;4.17;;;2.97;;
65567;SDS011;52211;50.154;8.682;2023-07-08T08:08:40;3.87;;;3.47;;
65567;SDS011;52211;50.154;8.682;2023-07-08T08:11:09;3.57;;;3.17;;
65567;SDS011;52211;50.154;8.682;2023-07-08T08:13:38;3.07;;;2.80;;
65567;SDS011;52211;50.154;8.682;2023-07-08T08:16:07;3.27;;;2.83;;
65567;SDS011;52211;50.154;8.682;2023-07-08T08:18:34;3.17;;;2.87;;
65567;SDS011;52211;50.154;8.682;2023-07-08T08:21:05;3.03;;;2.77;;
65567;SDS011;52211;50.154;8.682;2023-07-08T08:23:33;4.23;;;2.80;;
65567;SDS011;52211;50.154;8.682;2023-07-08T08:26:05;4.63;;;2.97;;
65567;SDS011;52211;50.154;8.682;2023-07-08T08:28:34;3.87;;;3.47;;
65567;SDS011;52211;50.154;8.682;2023-07-08T08:31:02;5.17;;;3.03;;
65567;SDS011;52211;50.154;8.682;2023-07-08T08:33:31;3.33;;;3.00;;
65567;SDS011;52211;50.154;8.682;2023-07-08T08:36:03;4.50;;;3.50;;
65567;SDS011;52211;50.154;8.682;2023-07-08T08:38:34;4.20;;;2.70;;
65567;SDS011;52211;50.154;8.682;2023-07-08T08:41:08;2.93;;;2.47;;
65567;SDS011;52211;50.154;8.682;2023-07-08T08:43:40;5.00;;;3.33;;
65567;SDS011;52211;50.154;8.682;2023-07-08T08:48:46;3.10;;;2.80;;
65567;SDS011;52211;50.154;8.682;2023-07-08T08:51:48;2.97;;;2.77;;
65567;SDS011;52211;50.154;8.682;2023-07-08T08:54:16;3.47;;;3.17;;
65567;SDS011;52211;50.154;8.682;2023-07-08T08:56:46;3.20;;;2.90;;
65567;SDS011;52211;50.154;8.682;2023-07-08T08:59:35;4.40;;;4.00;;
65567;SDS011;52211;50.154;8.682;2023-07-08T09:02:18;4.40;;;3.30;;
65567;SDS011;52211;50.154;8.682;2023-07-08T09:05:05;4.50;;;3.80;;
65567;SDS011;52211;50.154;8.682;2023-07-08T09:10:42;4.83;;;3.00;;
65567;SDS011;52211;50.154;8.682;2023-07-08T09:13:33;4.17;;;3.77;;
65567;SDS011;52211;50.154;8.682;2023-07-08T09:16:17;5.53;;;3.70;;
65567;SDS011;52211;50.154;8.682;2023-07-08T09:19:12;5.80;;;4.33;;
65567;SDS011;52211;50.154;8.682;2023-07-08T09:25:07;4.23;;;3.83;;
65567;SDS011;52211;50.154;8.682;2023-07-08T09:27:51;4.40;;;3.57;;
65567;SDS011;52211;50.154;8.682;2023-07-08T09:30:21;7.40;;;4.53;;
65567;SDS011;52211;50.154;8.682;2023-07-08T09:32:57;4.10;;;3.70;;
65567;SDS011;52211;50.154;8.682;2023-07-08T09:35:38;4.37;;;3.80;;
65567;SDS011;52211;50.154;8.682;2023-07-08T09:38:13;4.00;;;3.60;;
65567;SDS011;52211;50.154;8.682;2023-07-08T09:40:51;6.43;;;4.13;;
65567;SDS011;52211;50.154;8.682;2023-07-08T09:46:04;5.73;;;3.80;;
65567;SDS011;52211;50.154;8.682;2023-07-08T09:48:40;3.87;;;3.50;;
65567;SDS011;52211;50.154;8.682;2023-07-08T09:51:06;4.20;;;3.77;;
65567;SDS011;52211;50.154;8.682;2023-07-08T09:53:35;3.90;;;3.50;;
65567;SDS011;52211;50.154;8.682;2023-07-08T09:56:03;5.33;;;4.20;;
65567;SDS011;52211;50.154;8.682;2023-07-08T09:58:39;4.70;;;4.17;;
65567;SDS011;52211;50.154;8.682;2023-07-08T10:01:11;5.20;;;4.20;;
65567;SDS011;52211;50.154;8.682;2023-07-08T10:03:51;5.00;;;4.33;;
65567;SDS011;52211;50.154;8.682;2023-07-08T10:06:30;5.37;;;4.43;;
65567;SDS011;52211;50.154;8.682;2023-07-08T10:09:04;4.80;;;4.30;;
65567;SDS011;52211;50.154;8.682;2023-07-08T10:11:41;4.17;;;3.67;;
65567;SDS011;52211;50.154;8.682;2023-07-08T10:14:25;4.23;;;3.73;;
65567;SDS011;52211;50.154;8.682;2023-07-08T10:17:15;4.20;;;3.80;;
65567;SDS011;52211;50.154;8.682;2023-07-08T10:19:47;5.27;;;4.10;;
65567;SDS011;52211;50.154;8.682;2023-07-08T10:30:29;4.97;;;4.23;;
65567;SDS011;52211;50.154;8.682;2023-07-08T10:45:09;4.23;;;3.77;;
65567;SDS011;52211;50.154;8.682;2023-07-08T10:56:44;5.27;;;3.63;;
65567;SDS011;52211;50.154;8.682;2023-07-08T10:59:36;3.77;;;3.47;;
65567;SDS011;52211;50.154;8.682;2023-07-08T11:05:23;4.07;;;3.67;;
65567;SDS011;52211;50.154;8.682;2023-07-08T11:08:23;3.47;;;3.17;;
65567;SDS011;52211;50.154;8.682;2023-07-08T11:11:06;3.58;;;3.25;;
65567;SDS011;52211;50.154;8.682;2023-07-08T11:13:52;4.65;;;3.67;;
65567;SDS011;52211;50.154;8.682;2023-07-08T11:16:33;4.35;;;3.47;;
65567;SDS011;52211;50.154;8.682;2023-07-08T11:19:13;5.75;;;3.92;;
65567;SDS011;52211;50.154;8.682;2023-07-08T11:21:49;4.40;;;3.67;;
65567;SDS011;52211;50.154;8.682;2023-07-08T11:24:48;4.93;;;3.60;;
65567;SDS011;52211;50.154;8.682;2023-07-08T11:27:35;3.72;;;3.38;;
65567;SDS011;52211;50.154;8.682;2023-07-08T11:32:42;4.38;;;3.65;;
65567;SDS011;52211;50.154;8.682;2023-07-08T11:35:20;4.45;;;3.97;;
65567;SDS011;52211;50.154;8.682;2023-07-08T11:38:21;5.03;;;3.45;;
65567;SDS011;52211;50.154;8.682;2023-07-08T11:43:45;3.60;;;3.30;;
65567;SDS011;52211;50.154;8.682;2023-07-08T11:46:23;3.70;;;3.40;;
65567;SDS011;52211;50.154;8.682;2023-07-08T11:48:55;3.78;;;3.45;;
65567;SDS011;52211;50.154;8.682;2023-07-08T11:51:34;4.00;;;3.60;;
65567;SDS011;52211;50.154;8.682;2023-07-08T11:57:00;4.10;;;3.70;;
65567;SDS011;52211;50.154;8.682;2023-07-08T11:59:43;4.30;;;3.22;;
65567;SDS011;52211;50.154;8.682;2023-07-08T12:02:14;4.15;;;3.50;;
65567;SDS011;52211;50.154;8.682;2023-07-08T12:07:46;3.92;;;3.63;;
65567;SDS011;52211;50.154;8.682;2023-07-08T12:10:23;3.75;;;3.45;;
65567;SDS011;52211;50.154;8.682;2023-07-08T12:13:05;3.80;;;3.47;;
65567;SDS011;52211;50.154;8.682;2023-07-08T12:15:44;4.18;;;3.78;;
65567;SDS011;52211;50.154;8.682;2023-07-08T12:18:54;4.35;;;3.95;;
65567;SDS011;52211;50.154;8.682;2023-07-08T12:21:08;3.88;;;3.35;;
65567;SDS011;52211;50.154;8.682;2023-07-08T12:23:37;12.35;;;3.85;;
65567;SDS011;52211;50.154;8.682;2023-07-08T12:26:15;5.68;;;4.25;;
65567;SDS011;52211;50.154;8.682;2023-07-08T12:28:45;5.18;;;4.45;;
65567;SDS011;52211;50.154;8.682;2023-07-08T12:31:17;3.95;;;3.63;;
65567;SDS011;52211;50.154;8.682;2023-07-08T12:33:50;4.25;;;3.85;;
65567;SDS011;52211;50.154;8.682;2023-07-08T12:36:21;4.75;;;4.22;;
65567;SDS011;52211;50.154;8.682;2023-07-08T12:38:58;5.13;;;3.72;;
65567;SDS011;52211;50.154;8.682;2023-07-08T12:41:31;5.15;;;4.22;;
65567;SDS011;52211;50.154;8.682;2023-07-08T12:44:20;7.22;;;4.95;;
65567;SDS011;52211;50.154;8.682;2023-07-08T12:46:52;3.92;;;3.63;;
65567;SDS011;52211;50.154;8.682;2023-07-08T12:49:21;4.43;;;4.03;;
65567;SDS011;52211;50.154;8.682;2023-07-08T12:51:55;4.05;;;3.70;;
65567;SDS011;52211;50.154;8.682;2023-07-08T12:54:22;3.78;;;3.47;;
65567;SDS011;52211;50.154;8.682;2023-07-08T12:56:49;4.38;;;4.05;;
65567;SDS011;52211;50.154;8.682;2023-07-08T12:59:21;7.43;;;3.97;;
65567;SDS011;52211;50.154;8.682;2023-07-08T13:01:52;5.18;;;4.57;;
65567;SDS011;52211;50.154;8.682;2023-07-08T13:04:20;5.28;;;4.18;;
65567;SDS011;52211;50.154;8.682;2023-07-08T13:06:51;4.78;;;3.95;;
65567;SDS011;52211;50.154;8.682;2023-07-08T13:09:32;5.13;;;4.63;;
65567;SDS011;52211;50.154;8.682;2023-07-08T13:12:24;4.72;;;4.07;;
65567;SDS011;52211;50.154;8.682;2023-07-08T13:14:57;4.22;;;3.83;;
65567;SDS011;52211;50.154;8.682;2023-07-08T13:17:29;5.60;;;3.83;;
65567;SDS011;52211;50.154;8.682;2023-07-08T13:20:02;4.25;;;3.88;;
65567;SDS011;52211;50.154;8.682;2023-07-08T13:22:30;3.85;;;3.33;;
65567;SDS011;52211;50.154;8.682;2023-07-08T13:24:58;3.50;;;3.20;;
65567;SDS011;52211;50.154;8.682;2023-07-08T13:27:28;4.38;;;3.38;;
65567;SDS011;52211;50.154;8.682;2023-07-08T13:29:55;3.67;;;3.38;;
65567;SDS011;52211;50.154;8.682;2023-07-08T13:32:48;4.57;;;3.42;;
65567;SDS011;52211;50.154;8.682;2023-07-08T13:38:03;3.80;;;3.30;;
65567;SDS011;52211;50.154;8.682;2023-07-08T13:40:44;3.45;;;3.10;;
65567;SDS011;52211;50.154;8.682;2023-07-08T13:43:22;4.07;;;3.63;;
65567;SDS011;52211;50.154;8.682;2023-07-08T13:45:57;4.72;;;3.33;;
65567;SDS011;52211;50.154;8.682;2023-07-08T13:56:12;3.97;;;3.58;;
65567;SDS011;52211;50.154;8.682;2023-07-08T13:59:05;3.85;;;3.40;;
65567;SDS011;52211;50.154;8.682;2023-07-08T14:01:39;3.38;;;3.05;;
65567;SDS011;52211;50.154;8.682;2023-07-08T14:04:13;4.95;;;2.92;;
65567;SDS011;52211;50.154;8.682;2023-07-08T14:06:45;3.20;;;2.90;;
65567;SDS011;52211;50.154;8.682;2023-07-08T14:09:16;7.65;;;4.60;;
65567;SDS011;52211;50.154;8.682;2023-07-08T14:11:46;4.20;;;3.78;;
65567;SDS011;52211;50.154;8.682;2023-07-08T14:14:17;4.75;;;3.50;;
65567;SDS011;52211;50.154;8.682;2023-07-08T14:16:45;3.58;;;3.28;;
65567;SDS011;52211;50.154;8.682;2023-07-08T14:19:31;4.63;;;3.30;;
65567;SDS011;52211;50.154;8.682;2023-07-08T14:22:01;4.93;;;3.42;;
65567;SDS011;52211;50.154;8.682;2023-07-08T14:24:41;3.72;;;3.42;;
65567;SDS011;52211;50.154;8.682;2023-07-08T14:27:09;3.30;;;2.88;;
65567;SDS011;52211;50.154;8.682;2023-07-08T14:29:39;3.25;;;2.95;;
65567;SDS011;52211;50.154;8.682;2023-07-08T14:34:48;5.97;;;3.22;;
65567;SDS011;52211;50.154;8.682;2023-07-08T14:37:21;3.13;;;2.83;;
65567;SDS011;52211;50.154;8.682;2023-07-08T14:39:50;3.13;;;2.75;;
65567;SDS011;52211;50.154;8.682;2023-07-08T14:42:18;3.35;;;2.95;;
65567;SDS011;52211;50.154;8.682;2023-07-08T14:44:50;3.90;;;3.10;;
65567;SDS011;52211;50.154;8.682;2023-07-08T14:47:21;3.28;;;3.03;;
65567;SDS011;52211;50.154;8.682;2023-07-08T14:49:53;3.75;;;3.05;;
65567;SDS011;52211;50.154;8.682;2023-07-08T14:52:20;3.97;;;3.45;;
65567;SDS011;52211;50.154;8.682;2023-07-08T14:54:49;5.50;;;3.00;;
65567;SDS011;52211;50.154;8.682;2023-07-08T14:57:25;3.80;;;2.80;;
65567;SDS011;52211;50.154;8.682;2023-07-08T15:00:10;5.03;;;3.45;;
65567;SDS011;52211;50.154;8.682;2023-07-08T15:02:44;3.83;;;2.85;;
65567;SDS011;52211;50.154;8.682;2023-07-08T15:05:23;3.20;;;2.92;;
65567;SDS011;52211;50.154;8.682;2023-07-08T15:07:59;3.95;;;3.53;;
65567;SDS011;52211;50.154;8.682;2023-07-08T15:10:29;3.58;;;3.15;;
65567;SDS011;52211;50.154;8.682;2023-07-08T15:12:57;4.70;;;3.33;;
65567;SDS011;52211;50.154;8.682;2023-07-08T15:18:10;3.72;;;3.38;;
65567;SDS011;52211;50.154;8.682;2023-07-08T15:20:43;3.42;;;3.13;;
65567;SDS011;52211;50.154;8.682;2023-07-08T15:23:10;3.10;;;2.80;;
65567;SDS011;52211;50.154;8.682;2023-07-08T15:25:41;3.50;;;3.20;;
65567;SDS011;52211;50.154;8.682;2023-07-08T15:28:15;3.75;;;3.33;;
65567;SDS011;52211;50.154;8.682;2023-07-08T15:31:03;4.13;;;2.88;;
65567;SDS011;52211;50.154;8.682;2023-07-08T15:33:34;3.22;;;2.92;;
65567;SDS011;52211;50.154;8.682;2023-07-08T15:36:02;3.45;;;2.97;;
65567;SDS011;52211;50.154;8.682;2023-07-08T15:38:31;3.60;;;3.30;;
65567;SDS011;52211;50.154;8.682;2023-07-08T15:41:00;4.22;;;3.35;;
65567;SDS011;52211;50.154;8.682;2023-07-08T15:43:31;3.30;;;3.08;;
65567;SDS011;52211;50.154;8.682;2023-07-08T15:46:03;3.90;;;3.45;;
65567;SDS011;52211;50.154;8.682;2023-07-08T15:48:36;3.45;;;3.15;;
65567;SDS011;52211;50.154;8.682;2023-07-08T15:51:05;4.25;;;3.22;;
65567;SDS011;52211;50.154;8.682;2023-07-08T15:53:34;4.78;;;2.97;;
65567;SDS011;52211;50.154;8.682;2023-07-08T15:56:03;3.08;;;2.88;;
65567;SDS011;52211;50.154;8.682;2023-07-08T15:58:37;4.43;;;2.72;;
65567;SDS011;52211;50.154;8.682;2023-07-08T16:01:05;5.32;;;4.00;;
65567;SDS011;52211;50.154;8.682;2023-07-08T16:03:42;4.45;;;3.40;;
65567;SDS011;52211;50.154;8.682;2023-07-08T16:06:13;3.90;;;3.08;;
65567;SDS011;52211;50.154;8.682;2023-07-08T16:08:43;3.60;;;3.30;;
65567;SDS011;52211;50.154;8.682;2023-07-08T16:11:17;3.10;;;2.70;;
65567;SDS011;52211;50.154;8.682;2023-07-08T16:13:53;4.38;;;3.63;;
65567;SDS011;52211;50.154;8.682;2023-07-08T16:16:20;3.38;;;3.08;;
65567;SDS011;52211;50.154;8.682;2023-07-08T16:18:51;3.33;;;3.00;;
65567;SDS011;52211;50.154;8.682;2023-07-08T16:21:18;3.95;;;2.90;;
65567;SDS011;52211;50.154;8.682;2023-07-08T16:23:48;3.80;;;2.97;;
65567;SDS011;52211;50.154;8.682;2023-07-08T16:26:20;14.23;;;3.55;;
65567;SDS011;52211;50.154;8.682;2023-07-08T16:28:47;3.38;;;3.03;;
65567;SDS011;52211;50.154;8.682;2023-07-08T16:31:17;3.38;;;2.67;;
65567;SDS011;52211;50.154;8.682;2023-07-08T16:33:49;4.35;;;3.03;;
65567;SDS011;52211;50.154;8.682;2023-07-08T16:36:22;5.38;;;3.65;;